Observation data for Gail on 04/25/2019      Previous  Date  Next       Current Mesonet Observations  Soil Data  Daily Summary Page  Observations in Plain Language
KGGS 250500Z 24008KT 12/10 A2991 RMK A01 T01200101  RH  091%=      5-min Rain = 0
KGGS 250505Z 24007KT 12/10 A2991 RMK A01 T01190101  RH  091%=      5-min Rain = 0
KGGS 250510Z 24006KT 12/10 A2991 RMK A01 T01190100  RH  091%=      5-min Rain = 0
KGGS 250515Z 24006KT 12/10 A2991 RMK A01 T01190101  RH  091%=      5-min Rain = 0
KGGS 250520Z 24006KT 12/10 A2991 RMK A01 T01190100  RH  091%=      5-min Rain = 0
KGGS 250525Z 24006KT 12/10 A2991 RMK A01 T01190100  RH  091%=      5-min Rain = 0
KGGS 250530Z 23006KT 12/10 A299 RMK A01 T01200101  RH  091%=      5-min Rain = 0
KGGS 250535Z 24006KT 12/10 A299 RMK A01 T01210102  RH  091%=      5-min Rain = 0
KGGS 250540Z 24007KT 12/10 A299 RMK A01 T01220103  RH  091%=      5-min Rain = 0
KGGS 250545Z 24007KT 12/10 A299 RMK A01 T01230104  RH  091%=      5-min Rain = 0
KGGS 250550Z 24008KT 12/10 A299 RMK A01 T01230103  RH  091%=      5-min Rain = 0
KGGS 250555Z 24008KT 12/10 A299 RMK A01 T01220103  RH  091%=      5-min Rain = 0
KGGS 250600Z 24008KT 12/10 A299 RMK A01 T01220103  RH  091%=      5-min Rain = 0
KGGS 250605Z 24009KT 12/10 A299 RMK A01 T01230104  RH  091%=      5-min Rain = 0
KGGS 250610Z 24009KT 12/11 A299 RMK A01 T01240105  RH  091%=      5-min Rain = 0
KGGS 250615Z 24009KT 12/11 A299 RMK A01 T01240105  RH  091%=      5-min Rain = 0
KGGS 250620Z 24009KT 12/11 A299 RMK A01 T01240106  RH  091%=      5-min Rain = 0
KGGS 250625Z 24009KT 13/11 A299 RMK A01 T01250106  RH  091%=      5-min Rain = 0
KGGS 250630Z 24010KT 13/11 A299 RMK A01 T01250106  RH  091%=      5-min Rain = 0
KGGS 250635Z 24009KT 13/11 A2989 RMK A01 T01250106  RH  091%=      5-min Rain = 0
KGGS 250640Z 24010KT 13/11 A2989 RMK A01 T01250106  RH  091%=      5-min Rain = 0
KGGS 250645Z 24009KT 13/11 A2989 RMK A01 T01250106  RH  091%=      5-min Rain = 0
KGGS 250650Z 24009KT 13/11 A2989 RMK A01 T01250105  RH  091%=      5-min Rain = 0
KGGS 250655Z 24009KT 12/11 A2989 RMK A01 T01240105  RH  091%=      5-min Rain = 0
KGGS 250700Z 24009KT 13/11 A2989 RMK A01 T01250105  RH  091%=      5-min Rain = 0
KGGS 250705Z 24009G14KT 13/11 A2988 RMK A01 T01270106  RH  090%=      5-min Rain = 0
KGGS 250710Z 24009KT 13/11 A2988 RMK A01 T01270105  RH  090%=      5-min Rain = 0
KGGS 250715Z 24009KT 13/11 A2988 RMK A01 T01270105  RH  089%=      5-min Rain = 0
KGGS 250720Z 24009KT 13/10 A2988 RMK A01 T01270104  RH  089%=      5-min Rain = 0
KGGS 250725Z 24009KT 13/10 A2988 RMK A01 T01270104  RH  089%=      5-min Rain = 0
KGGS 250730Z 24009KT 13/10 A2988 RMK A01 T01270104  RH  089%=      5-min Rain = 0
KGGS 250735Z 24009KT 13/10 A2988 RMK A01 T01270103  RH  089%=      5-min Rain = 0
KGGS 250740Z 24008KT 13/10 A2988 RMK A01 T01260103  RH  089%=      5-min Rain = 0
KGGS 250745Z 24009KT 13/10 A2988 RMK A01 T01250102  RH  089%=      5-min Rain = 0
KGGS 250750Z 24009KT 12/10 A2988 RMK A01 T01240101  RH  089%=      5-min Rain = 0
KGGS 250755Z 23008KT 12/10 A2988 RMK A01 T01230101  RH  089%=      5-min Rain = 0
KGGS 250800Z 23007KT 12/10 A2987 RMK A01 T01220100  RH  090%=      5-min Rain = 0
KGGS 250805Z 23007KT 12/10 A2987 RMK A01 T01200099  RH  090%=      5-min Rain = 0
KGGS 250810Z 23008KT 12/10 A2987 RMK A01 T01190098  RH  090%=      5-min Rain = 0
KGGS 250815Z 23008KT 12/10 A2987 RMK A01 T01180099  RH  091%=      5-min Rain = 0
KGGS 250820Z 22009KT 12/10 A2987 RMK A01 T01190099  RH  091%=      5-min Rain = 0
KGGS 250825Z 22009KT 12/10 A2987 RMK A01 T01180099  RH  091%=      5-min Rain = 0
KGGS 250830Z 22008KT 12/10 A2987 RMK A01 T01170098  RH  091%=      5-min Rain = 0
KGGS 250835Z 22008KT 11/10 A2987 RMK A01 T01140095  RH  091%=      5-min Rain = 0
KGGS 250840Z 22007KT 11/10 A2987 RMK A01 T01130095  RH  091%=      5-min Rain = 0
KGGS 250845Z 22007KT 11/09 A2987 RMK A01 T01120094  RH  092%=      5-min Rain = 0
KGGS 250850Z 22007KT 11/09 A2987 RMK A01 T01110094  RH  092%=      5-min Rain = 0
KGGS 250855Z 22007KT 11/09 A2987 RMK A01 T01100094  RH  092%=      5-min Rain = 0
KGGS 250900Z 22006KT 11/09 A2987 RMK A01 T01100094  RH  092%=      5-min Rain = 0
KGGS 250905Z 21006KT 11/09 A2987 RMK A01 T01080092  RH  093%=      5-min Rain = 0
KGGS 250910Z 21005KT 11/09 A2987 RMK A01 T01070091  RH  093%=      5-min Rain = 0
KGGS 250915Z 22005KT 11/09 A2987 RMK A01 T01060090  RH  093%=      5-min Rain = 0
KGGS 250920Z 23005KT 10/09 A2987 RMK A01 T01040089  RH  093%=      5-min Rain = 0
KGGS 250925Z 24006KT 10/09 A2987 RMK A01 T01040089  RH  093%=      5-min Rain = 0
KGGS 250930Z 24006KT 10/09 A2987 RMK A01 T01040089  RH  093%=      5-min Rain = 0
KGGS 250935Z 24006KT 10/09 A2987 RMK A01 T01030089  RH  093%=      5-min Rain = 0
KGGS 250940Z 24005KT 10/09 A2987 RMK A01 T01020087  RH  093%=      5-min Rain = 0
KGGS 250945Z 23005KT 10/09 A2987 RMK A01 T01010087  RH  094%=      5-min Rain = 0
KGGS 250950Z 23006KT 10/09 A2987 RMK A01 T01010087  RH  094%=      5-min Rain = 0
KGGS 250955Z 24006KT 10/09 A2987 RMK A01 T01020088  RH  094%=      5-min Rain = 0
KGGS 251000Z 24005KT 10/09 A2987 RMK A01 T01030089  RH  094%=      5-min Rain = 0
KGGS 251005Z 22004KT 10/09 A2987 RMK A01 T01040090  RH  094%=      5-min Rain = 0
KGGS 251010Z 23005KT 10/09 A2987 RMK A01 T01020088  RH  094%=      5-min Rain = 0
KGGS 251015Z 24005KT 10/09 A2987 RMK A01 T01040090  RH  094%=      5-min Rain = 0
KGGS 251020Z 25003KT 11/09 A2987 RMK A01 T01060091  RH  093%=      5-min Rain = 0
KGGS 251025Z 24003KT 11/09 A2987 RMK A01 T01080093  RH  093%=      5-min Rain = 0
KGGS 251030Z 24004KT 11/09 A2987 RMK A01 T01060090  RH  093%=      5-min Rain = 0
KGGS 251035Z 24005KT 11/09 A2987 RMK A01 T01080092  RH  092%=      5-min Rain = 0
KGGS 251040Z 23006KT 11/09 A2987 RMK A01 T01110093  RH  091%=      5-min Rain = 0
KGGS 251045Z 23004KT 11/09 A2987 RMK A01 T01140093  RH  090%=      5-min Rain = 0
KGGS 251050Z 23003KT 11/09 A2987 RMK A01 T01130090  RH  088%=      5-min Rain = 0
KGGS 251055Z 15001KT 11/09 A2987 RMK A01 T01110087  RH  088%=      5-min Rain = 0
KGGS 251100Z 17001KT 11/09 A2987 RMK A01 T01110088  RH  088%=      5-min Rain = 0
KGGS 251105Z 23003KT 11/09 A2987 RMK A01 T01100087  RH  088%=      5-min Rain = 0
KGGS 251110Z 20004KT 11/09 A2987 RMK A01 T01100086  RH  088%=      5-min Rain = 0
KGGS 251115Z 17003KT 11/08 A2987 RMK A01 T01070083  RH  088%=      5-min Rain = 0
KGGS 251120Z 18003KT 10/08 A2987 RMK A01 T01040081  RH  088%=      5-min Rain = 0
KGGS 251125Z 18002KT 11/08 A2988 RMK A01 T01050082  RH  089%=      5-min Rain = 0
KGGS 251130Z 23003KT 10/08 A2988 RMK A01 T01040082  RH  089%=      5-min Rain = 0
KGGS 251135Z 25007KT 12/09 A2988 RMK A01 T01150093  RH  089%=      5-min Rain = 0
KGGS 251140Z 26008KT 12/10 A2988 RMK A01 T01220096  RH  086%=      5-min Rain = 0
KGGS 251145Z 26008G13KT 13/10 A2988 RMK A01 T01250096  RH  085%=      5-min Rain = 0
KGGS 251150Z 26009G14KT 13/10 A2988 RMK A01 T01290097  RH  084%=      5-min Rain = 0
KGGS 251155Z 27008KT 13/10 A2988 RMK A01 T01300097  RH  083%=      5-min Rain = 0
KGGS 251200Z 28004KT 13/10 A2988 RMK A01 T01290095  RH  083%=      5-min Rain = 0
KGGS 251205Z 30003KT 13/09 A2989 RMK A01 T01280094  RH  083%=      5-min Rain = 0
KGGS 251210Z 28003G10KT 13/09 A2989 RMK A01 T01280094  RH  082%=      5-min Rain = 0
KGGS 251215Z 27007KT 13/10 A2989 RMK A01 T01300096  RH  082%=      5-min Rain = 0
KGGS 251220Z 27007G12KT 13/10 A2989 RMK A01 T01310096  RH  082%=      5-min Rain = 0
KGGS 251225Z 27010KT 13/10 A2989 RMK A01 T01330097  RH  081%=      5-min Rain = 0
KGGS 251230Z 27011KT 13/10 A2989 RMK A01 T01340098  RH  081%=      5-min Rain = 0
KGGS 251235Z 27011G16KT 14/10 A2989 RMK A01 T01360098  RH  080%=      5-min Rain = 0
KGGS 251240Z 27011G16KT 14/10 A2989 RMK A01 T01390099  RH  080%=      5-min Rain = 0
KGGS 251245Z 27010G16KT 14/10 A299 RMK A01 T01410100  RH  079%=      5-min Rain = 0
KGGS 251250Z 27009KT 14/10 A299 RMK A01 T01440101  RH  078%=      5-min Rain = 0
KGGS 251255Z 27007G12KT 15/10 A299 RMK A01 T01470102  RH  077%=      5-min Rain = 0
KGGS 251300Z 28007G12KT 15/10 A299 RMK A01 T01490103  RH  076%=      5-min Rain = 0
KGGS 251305Z 28007KT 15/10 A299 RMK A01 T01500102  RH  076%=      5-min Rain = 0
KGGS 251310Z 28004KT 15/10 A2991 RMK A01 T01530104  RH  075%=      5-min Rain = 0
KGGS 251315Z 28006G12KT 16/10 A2991 RMK A01 T01560104  RH  074%=      5-min Rain = 0
KGGS 251320Z 29007G13KT 16/10 A2991 RMK A01 T01590104  RH  073%=      5-min Rain = 0
KGGS 251325Z 31004G9KT 16/11 A2991 RMK A01 T01600106  RH  073%=      5-min Rain = 0
KGGS 251330Z 29001KT 16/11 A2991 RMK A01 T01640108  RH  072%=      5-min Rain = 0
KGGS 251335Z 09002KT 17/11 A2991 RMK A01 T01660107  RH  071%=      5-min Rain = 0
KGGS 251340Z 12001KT 17/11 A2991 RMK A01 T01670108  RH  071%=      5-min Rain = 0
KGGS 251345Z 30001KT 17/11 A2991 RMK A01 T01740112  RH  069%=      5-min Rain = 0
KGGS 251350Z 29002KT 18/11 A2991 RMK A01 T01760111  RH  068%=      5-min Rain = 0
KGGS 251355Z 30004KT 18/11 A2992 RMK A01 T01760111  RH  068%=      5-min Rain = 0
KGGS 251400Z 25004KT 18/11 A2992 RMK A01 T01770113  RH  068%=      5-min Rain = 0
KGGS 251405Z 24005KT 18/11 A2992 RMK A01 T01750112  RH  069%=      5-min Rain = 0
KGGS 251410Z 26005G10KT 18/11 A2992 RMK A01 T01760113  RH  069%=      5-min Rain = 0
KGGS 251415Z 25005KT 18/11 A2992 RMK A01 T01760113  RH  069%=      5-min Rain = 0
KGGS 251420Z 26005KT 18/11 A2992 RMK A01 T01770113  RH  068%=      5-min Rain = 0
KGGS 251425Z 26004KT 18/11 A2992 RMK A01 T01790112  RH  067%=      5-min Rain = 0
KGGS 251430Z 26005KT 18/11 A2992 RMK A01 T01820114  RH  067%=      5-min Rain = 0
KGGS 251435Z 25007KT 18/11 A2993 RMK A01 T01820112  RH  066%=      5-min Rain = 0
KGGS 251445Z 26005KT 19/11 A2993 RMK A01 T01860114  RH  065%=      5-min Rain = 0
KGGS 251450Z 26005KT 19/12 A2993 RMK A01 T01900117  RH  065%=      5-min Rain = 0
KGGS 251455Z 25007KT 19/12 A2993 RMK A01 T01920117  RH  064%=      5-min Rain = 0
KGGS 251500Z 26007KT 19/12 A2993 RMK A01 T01900115  RH  064%=      5-min Rain = 0
KGGS 251505Z 27007KT 19/12 A2993 RMK A01 T01920118  RH  064%=      5-min Rain = 0
KGGS 251510Z 26010KT 20/12 A2992 RMK A01 T01960116  RH  062%=      5-min Rain = 0
KGGS 251515Z 26010KT 20/12 A2993 RMK A01 T01980117  RH  062%=      5-min Rain = 0
KGGS 251520Z 27010KT 20/12 A2993 RMK A01 T02010118  RH  061%=      5-min Rain = 0
KGGS 251525Z 26009G14KT 20/12 A2993 RMK A01 T02040118  RH  060%=      5-min Rain = 0
KGGS 251530Z 27008KT 21/12 A2993 RMK A01 T02060118  RH  059%=      5-min Rain = 0
KGGS 251535Z 29006KT 21/12 A2994 RMK A01 T02140123  RH  058%=      5-min Rain = 0
KGGS 251540Z 28006KT 22/12 A2994 RMK A01 T02150118  RH  056%=      5-min Rain = 0
KGGS 251545Z 26006KT 22/12 A2994 RMK A01 T02160119  RH  056%=      5-min Rain = 0
KGGS 251550Z 25006KT 22/12 A2994 RMK A01 T02180118  RH  055%=      5-min Rain = 0
KGGS 251555Z 24005KT 22/12 A2994 RMK A01 T02190119  RH  055%=      5-min Rain = 0
KGGS 251600Z 25006KT 22/12 A2994 RMK A01 T02230118  RH  053%=      5-min Rain = 0
KGGS 251605Z 23006KT 23/12 A2994 RMK A01 T02260122  RH  053%=      5-min Rain = 0
KGGS 251610Z 23006KT 23/12 A2994 RMK A01 T02270122  RH  053%=      5-min Rain = 0
KGGS 251615Z 24005KT 23/12 A2994 RMK A01 T02300124  RH  053%=      5-min Rain = 0
KGGS 251620Z 26005KT 24/12 A2994 RMK A01 T02350124  RH  052%=      5-min Rain = 0
KGGS 251625Z 25006KT 24/12 A2994 RMK A01 T02370124  RH  051%=      5-min Rain = 0
KGGS 251630Z 27005KT 24/13 A2994 RMK A01 T02410126  RH  050%=      5-min Rain = 0
KGGS 251635Z 28005KT 24/12 A2994 RMK A01 T02420123  RH  049%=      5-min Rain = 0
KGGS 251640Z 26005KT 24/12 A2994 RMK A01 T02420122  RH  049%=      5-min Rain = 0
KGGS 251645Z 27005KT 24/12 A2994 RMK A01 T02430122  RH  049%=      5-min Rain = 0
KGGS 251650Z 25005KT 25/13 A2995 RMK A01 T02480129  RH  049%=      5-min Rain = 0
KGGS 251655Z 28005KT 25/12 A2995 RMK A01 T02480121  RH  047%=      5-min Rain = 0
KGGS 251700Z 27005KT 25/12 A2995 RMK A01 T02480120  RH  046%=      5-min Rain = 0
KGGS 251705Z 24005KT 25/12 A2995 RMK A01 T02480122  RH  047%=      5-min Rain = 0
KGGS 251710Z 24007KT 25/13 A2995 RMK A01 T02530125  RH  047%=      5-min Rain = 0
KGGS 251715Z 25006KT 25/12 A2995 RMK A01 T02510122  RH  046%=      5-min Rain = 0
KGGS 251720Z 24006KT 25/12 A2995 RMK A01 T02530124  RH  046%=      5-min Rain = 0
KGGS 251725Z 28007KT 26/12 A2995 RMK A01 T02570119  RH  044%=      5-min Rain = 0
KGGS 251730Z 33003G8KT 26/11 A2995 RMK A01 T02580112  RH  042%=      5-min Rain = 0
KGGS 251735Z 27006KT 26/12 A2995 RMK A01 T02600116  RH  042%=      5-min Rain = 0
KGGS 251740Z 28004KT 26/12 A2995 RMK A01 T02590118  RH  043%=      5-min Rain = 0
KGGS 251745Z 29003KT 26/11 A2995 RMK A01 T02610114  RH  041%=      5-min Rain = 0
KGGS 251750Z 29005KT 26/12 A2995 RMK A01 T02620122  RH  043%=      5-min Rain = 0
KGGS 251755Z 29005KT 26/12 A2995 RMK A01 T02640117  RH  042%=      5-min Rain = 0
KGGS 251800Z 27005KT 26/11 A2995 RMK A01 T02630112  RH  040%=      5-min Rain = 0
KGGS 251805Z 24003KT 27/11 A2995 RMK A01 T02660108  RH  038%=      5-min Rain = 0
KGGS 251810Z 28003KT 27/11 A2995 RMK A01 T02670107  RH  038%=      5-min Rain = 0
KGGS 251815Z 33006KT 27/11 A2995 RMK A01 T02690110  RH  038%=      5-min Rain = 0
KGGS 251820Z 29006KT 27/11 A2995 RMK A01 T02710105  RH  037%=      5-min Rain = 0
KGGS 251825Z 35004KT 27/10 A2995 RMK A01 T02710103  RH  036%=      5-min Rain = 0
KGGS 251830Z 30005G10KT 27/10 A2995 RMK A01 T02710096  RH  034%=      5-min Rain = 0
KGGS 251835Z 33007KT 27/09 A2995 RMK A01 T02730093  RH  033%=      5-min Rain = 0
KGGS 251840Z 01006KT 27/10 A2995 RMK A01 T02720096  RH  034%=      5-min Rain = 0
KGGS 251845Z 04004KT 27/09 A2995 RMK A01 T02720092  RH  033%=      5-min Rain = 0
KGGS 251850Z 02005G10KT 27/10 A2995 RMK A01 T02720095  RH  034%=      5-min Rain = 0
KGGS 251855Z 36005KT 27/09 A2995 RMK A01 T02720090  RH  033%=      5-min Rain = 0
KGGS 251900Z 01006G11KT 27/09 A2996 RMK A01 T02720093  RH  033%=      5-min Rain = 0
KGGS 251905Z 35008KT 27/10 A2996 RMK A01 T02730097  RH  034%=      5-min Rain = 0
KGGS 251910Z 36007G12KT 27/10 A2996 RMK A01 T02720098  RH  035%=      5-min Rain = 0
KGGS 251915Z 01006KT 27/10 A2996 RMK A01 T02720101  RH  035%=      5-min Rain = 0
KGGS 251920Z 05003KT 27/09 A2996 RMK A01 T02710093  RH  034%=      5-min Rain = 0
KGGS 251925Z 00007KT 27/10 A2996 RMK A01 T02740099  RH  035%=      5-min Rain = 0
KGGS 251930Z 34007KT 28/10 A2996 RMK A01 T02750099  RH  034%=      5-min Rain = 0
KGGS 251935Z 02007KT 28/11 A2996 RMK A01 T02760105  RH  036%=      5-min Rain = 0
KGGS 251940Z 01008KT 28/11 A2996 RMK A01 T02770108  RH  036%=      5-min Rain = 0
KGGS 251945Z 35007KT 28/11 A2996 RMK A01 T02780109  RH  036%=      5-min Rain = 0
KGGS 251950Z 36007KT 28/11 A2996 RMK A01 T02780106  RH  036%=      5-min Rain = 0
KGGS 251955Z 02006KT 28/11 A2996 RMK A01 T02760106  RH  036%=      5-min Rain = 0
KGGS 252000Z 01008KT 28/10 A2996 RMK A01 T02760104  RH  035%=      5-min Rain = 0
KGGS 252005Z 00007KT 28/11 A2996 RMK A01 T02770107  RH  036%=      5-min Rain = 0
KGGS 252010Z 36007G12KT 28/11 A2997 RMK A01 T02790105  RH  035%=      5-min Rain = 0
KGGS 252015Z 01007KT 28/10 A2997 RMK A01 T02780103  RH  035%=      5-min Rain = 0
KGGS 252020Z 01007G12KT 28/10 A2997 RMK A01 T02780103  RH  035%=      5-min Rain = 0
KGGS 252025Z 01007KT 28/10 A2997 RMK A01 T02770102  RH  035%=      5-min Rain = 0
KGGS 252030Z 02008KT 28/11 A2997 RMK A01 T02790110  RH  036%=      5-min Rain = 0
KGGS 252035Z 03009KT 28/11 A2997 RMK A01 T02780106  RH  035%=      5-min Rain = 0
KGGS 252040Z 02008KT 28/10 A2997 RMK A01 T02780100  RH  034%=      5-min Rain = 0
KGGS 252045Z 01007KT 28/10 A2997 RMK A01 T02780098  RH  033%=      5-min Rain = 0
KGGS 252050Z 34006KT 28/10 A2997 RMK A01 T02780100  RH  034%=      5-min Rain = 0
KGGS 252055Z 34010KT 28/11 A2997 RMK A01 T02820106  RH  035%=      5-min Rain = 0
KGGS 252100Z 35007KT 28/10 A2996 RMK A01 T02810101  RH  034%=      5-min Rain = 0
KGGS 252105Z 00006KT 28/11 A2996 RMK A01 T02830110  RH  035%=      5-min Rain = 0
KGGS 252110Z 04008KT 28/11 A2996 RMK A01 T02780105  RH  035%=      5-min Rain = 0
KGGS 252115Z 03007KT 28/11 A2996 RMK A01 T02800112  RH  037%=      5-min Rain = 0
KGGS 252120Z 02007KT 28/11 A2996 RMK A01 T02790107  RH  036%=      5-min Rain = 0
KGGS 252125Z 04007KT 28/11 A2996 RMK A01 T02800112  RH  036%=      5-min Rain = 0
KGGS 252130Z 02007KT 28/11 A2996 RMK A01 T02790111  RH  036%=      5-min Rain = 0
KGGS 252135Z 02008KT 28/11 A2996 RMK A01 T02800113  RH  037%=      5-min Rain = 0
KGGS 252140Z 01010KT 28/11 A2997 RMK A01 T02780111  RH  037%=      5-min Rain = 0
KGGS 252145Z 01010KT 28/11 A2997 RMK A01 T02790110  RH  036%=      5-min Rain = 0
KGGS 252150Z 01009KT 28/12 A2997 RMK A01 T02810117  RH  037%=      5-min Rain = 0
KGGS 252155Z 02010G16KT 28/11 A2997 RMK A01 T02780107  RH  036%=      5-min Rain = 0
KGGS 252200Z 03010KT 28/11 A2997 RMK A01 T02780106  RH  035%=      5-min Rain = 0
KGGS 252205Z 03010KT 28/11 A2997 RMK A01 T02770108  RH  036%=      5-min Rain = 0
KGGS 252210Z 02011KT 28/11 A2997 RMK A01 T02780112  RH  037%=      5-min Rain = 0
KGGS 252215Z 01012KT 28/11 A2997 RMK A01 T02760110  RH  037%=      5-min Rain = 0
KGGS 252220Z 02009KT 28/11 A2997 RMK A01 T02760108  RH  036%=      5-min Rain = 0
KGGS 252225Z 03009G14KT 28/11 A2997 RMK A01 T02760110  RH  037%=      5-min Rain = 0
KGGS 252230Z 04010KT 28/11 A2998 RMK A01 T02760108  RH  036%=      5-min Rain = 0
KGGS 252235Z 03010KT 28/10 A2998 RMK A01 T02750104  RH  036%=      5-min Rain = 0
KGGS 252240Z 02010KT 28/10 A2998 RMK A01 T02750102  RH  035%=      5-min Rain = 0
KGGS 252245Z 04009G14KT 27/10 A2998 RMK A01 T02740100  RH  035%=      5-min Rain = 0
KGGS 252250Z 04009KT 27/10 A2998 RMK A01 T02740101  RH  035%=      5-min Rain = 0
KGGS 252255Z 03009KT 27/10 A2998 RMK A01 T02740103  RH  035%=      5-min Rain = 0
KGGS 252300Z 03009KT 27/10 A2998 RMK A01 T02740102  RH  035%=      5-min Rain = 0
KGGS 252305Z 02009KT 27/11 A2999 RMK A01 T02740105  RH  036%=      5-min Rain = 0
KGGS 252310Z 03008G13KT 27/11 A2999 RMK A01 T02730106  RH  036%=      5-min Rain = 0
KGGS 252315Z 03008KT 27/11 A2999 RMK A01 T02730106  RH  036%=      5-min Rain = 0
KGGS 252320Z 04009G14KT 27/10 A2999 RMK A01 T02710102  RH  036%=      5-min Rain = 0
KGGS 252325Z 04009KT 27/10 A2999 RMK A01 T02700102  RH  036%=      5-min Rain = 0
KGGS 252330Z 04008KT 27/10 A30 RMK A01 T02700100  RH  036%=      5-min Rain = 0
KGGS 252335Z 04009KT 27/10 A30 RMK A01 T02690100  RH  036%=      5-min Rain = 0
KGGS 252340Z 04010KT 27/10 A30 RMK A01 T02680100  RH  036%=      5-min Rain = 0
KGGS 252345Z 04008G13KT 27/10 A30 RMK A01 T02670103  RH  037%=      5-min Rain = 0
KGGS 252350Z 05010KT 27/10 A30 RMK A01 T02660098  RH  036%=      5-min Rain = 0
KGGS 252355Z 05008KT 26/10 A3001 RMK A01 T02640101  RH  037%=      5-min Rain = 0
KGGS 260000Z 04008KT 26/10 A3001 RMK A01 T02630099  RH  037%=      5-min Rain = 0
KGGS 260005Z 04007KT 26/10 A3001 RMK A01 T02620103  RH  038%=      5-min Rain = 0
KGGS 260010Z 05007KT 26/10 A3001 RMK A01 T02610104  RH  038%=      5-min Rain = 0
KGGS 260015Z 05006KT 26/11 A3001 RMK A01 T02600108  RH  040%=      5-min Rain = 0
KGGS 260020Z 05008KT 26/10 A3001 RMK A01 T02580104  RH  039%=      5-min Rain = 0
KGGS 260025Z 05007KT 26/10 A3002 RMK A01 T02560103  RH  039%=      5-min Rain = 0
KGGS 260030Z 04007KT 25/10 A3002 RMK A01 T02530102  RH  040%=      5-min Rain = 0
KGGS 260035Z 04007KT 25/10 A3002 RMK A01 T02500100  RH  040%=      5-min Rain = 0
KGGS 260040Z 04008KT 25/10 A3002 RMK A01 T02480098  RH  040%=      5-min Rain = 0
KGGS 260045Z 04007KT 25/10 A3002 RMK A01 T02450101  RH  041%=      5-min Rain = 0
KGGS 260050Z 04007KT 24/10 A3003 RMK A01 T02440101  RH  042%=      5-min Rain = 0
KGGS 260055Z 04006KT 24/10 A3003 RMK A01 T02400104  RH  044%=      5-min Rain = 0
KGGS 260100Z 04006KT 24/11 A3003 RMK A01 T02370105  RH  045%=      5-min Rain = 0
KGGS 260105Z 04007KT 24/10 A3003 RMK A01 T02370102  RH  044%=      5-min Rain = 0
KGGS 260110Z 04006KT 23/10 A3003 RMK A01 T02340103  RH  045%=      5-min Rain = 0
KGGS 260115Z 04006KT 23/10 A3003 RMK A01 T02300104  RH  047%=      5-min Rain = 0
KGGS 260120Z 04007KT 23/10 A3004 RMK A01 T02280102  RH  046%=      5-min Rain = 0
KGGS 260125Z 03008KT 23/11 A3004 RMK A01 T02250106  RH  048%=      5-min Rain = 0
KGGS 260130Z 04006KT 22/11 A3004 RMK A01 T02210108  RH  050%=      5-min Rain = 0
KGGS 260135Z 04007KT 22/11 A3005 RMK A01 T02200107  RH  050%=      5-min Rain = 0
KGGS 260140Z 04009KT 22/11 A3005 RMK A01 T02220107  RH  050%=      5-min Rain = 0
KGGS 260145Z 04010KT 22/11 A3006 RMK A01 T02210109  RH  051%=      5-min Rain = 0
KGGS 260150Z 05008KT 22/11 A3006 RMK A01 T02160112  RH  053%=      5-min Rain = 0
KGGS 260155Z 04009KT 21/11 A3007 RMK A01 T02130112  RH  054%=      5-min Rain = 0
KGGS 260200Z 04009KT 21/11 A3007 RMK A01 T02140111  RH  054%=      5-min Rain = 0
KGGS 260205Z 04009KT 21/11 A3007 RMK A01 T02120111  RH  054%=      5-min Rain = 0
KGGS 260210Z 04008KT 21/11 A3007 RMK A01 T02090112  RH  056%=      5-min Rain = 0
KGGS 260215Z 04008KT 21/11 A3008 RMK A01 T02070112  RH  056%=      5-min Rain = 0
KGGS 260220Z 04008KT 21/11 A3008 RMK A01 T02070111  RH  056%=      5-min Rain = 0
KGGS 260225Z 05007KT 20/11 A3008 RMK A01 T02040111  RH  057%=      5-min Rain = 0
KGGS 260230Z 05007KT 20/11 A3008 RMK A01 T02000111  RH  059%=      5-min Rain = 0
KGGS 260235Z 05007KT 20/11 A3009 RMK A01 T01980110  RH  059%=      5-min Rain = 0
KGGS 260240Z 05007KT 20/11 A3009 RMK A01 T01970109  RH  059%=      5-min Rain = 0
KGGS 260245Z 05007KT 20/11 A3009 RMK A01 T01960108  RH  059%=      5-min Rain = 0
KGGS 260250Z 05007KT 19/11 A3009 RMK A01 T01940107  RH  059%=      5-min Rain = 0
KGGS 260255Z 05006KT 19/11 A301 RMK A01 T01930107  RH  060%=      5-min Rain = 0
KGGS 260300Z 05006KT 19/11 A301 RMK A01 T01900108  RH  061%=      5-min Rain = 0
KGGS 260305Z 04005KT 19/11 A301 RMK A01 T01870108  RH  062%=      5-min Rain = 0
KGGS 260310Z 04005KT 19/11 A3011 RMK A01 T01850108  RH  063%=      5-min Rain = 0
KGGS 260315Z 04006KT 18/11 A3011 RMK A01 T01830108  RH  063%=      5-min Rain = 0
KGGS 260320Z 04006KT 18/11 A3011 RMK A01 T01830108  RH  063%=      5-min Rain = 0
KGGS 260325Z 04005KT 18/11 A3012 RMK A01 T01820107  RH  064%=      5-min Rain = 0
KGGS 260330Z 05005KT 18/11 A3012 RMK A01 T01810107  RH  064%=      5-min Rain = 0
KGGS 260335Z 05005KT 18/11 A3012 RMK A01 T01800107  RH  064%=      5-min Rain = 0
KGGS 260340Z 05005KT 18/11 A3012 RMK A01 T01800107  RH  064%=      5-min Rain = 0
KGGS 260345Z 05005KT 18/11 A3012 RMK A01 T01780107  RH  065%=      5-min Rain = 0
KGGS 260350Z 06005KT 18/11 A3013 RMK A01 T01760107  RH  066%=      5-min Rain = 0
KGGS 260355Z 06005KT 17/11 A3013 RMK A01 T01730107  RH  067%=      5-min Rain = 0
KGGS 260400Z 05005KT 17/11 A3013 RMK A01 T01720108  RH  068%=      5-min Rain = 0
KGGS 260405Z 05006KT 17/11 A3013 RMK A01 T01710107  RH  068%=      5-min Rain = 0
KGGS 260410Z 04006KT 17/11 A3013 RMK A01 T01720107  RH  068%=      5-min Rain = 0
KGGS 260415Z 04007KT 17/11 A3013 RMK A01 T01710106  RH  068%=      5-min Rain = 0
KGGS 260420Z 04007KT 17/11 A3014 RMK A01 T01740105  RH  066%=      5-min Rain = 0
KGGS 260425Z 04007KT 18/11 A3014 RMK A01 T01770105  RH  065%=      5-min Rain = 0
KGGS 260430Z 04007KT 18/11 A3014 RMK A01 T01770105  RH  065%=      5-min Rain = 0
KGGS 260435Z 04007KT 18/11 A3014 RMK A01 T01760105  RH  065%=      5-min Rain = 0
KGGS 260440Z 04007KT 18/11 A3014 RMK A01 T01750105  RH  066%=      5-min Rain = 0
KGGS 260445Z 04007KT 18/11 A3014 RMK A01 T01750105  RH  066%=      5-min Rain = 0
KGGS 260450Z 04006KT 17/11 A3014 RMK A01 T01730105  RH  067%=      5-min Rain = 0
KGGS 260455Z 04006KT 17/11 A3015 RMK A01 T01700105  RH  068%=      5-min Rain = 0

Page generated in 0.0332 seconds.